Time;durP1;ratioP1;P1;durP2;ratioP2;P2;SDS_P1;SDS_P2;PMS_P1;PMS_P2;Temp;Humidity;BMP_temperature;BMP_pressure;BME280_temperature;BME280_humidity;BME280_pressure;Samples;Min_cycle;Max_cycle;Signal;HPM_P1;HPM_P2
2023/07/30 00:02:06;;;;;;;8.40;4.32;;;;;;;29.07;57.35;100642.94;5050049;28;66206;-39
2023/07/30 00:04:37;;;;;;;5.50;5.00;;;;;;;28.88;57.64;100606.81;5054264;28;71521;-40
2023/07/30 00:07:10;;;;;;;8.75;5.40;;;;;;;28.96;58.48;100618.22;5047214;28;65739;-40
2023/07/30 00:09:41;;;;;;;;;;;;;;;28.78;59.22;100639.69;5058132;28;69419;-39
2023/07/30 00:12:12;;;;;;;5.20;4.72;;;;;;;29.15;58.75;100640.00;5049161;28;66265;-40
2023/07/30 00:14:44;;;;;;;7.87;5.47;;;;;;;29.02;59.43;100615.69;5057624;28;69573;-39
2023/07/30 00:17:15;;;;;;;6.13;4.80;;;;;;;29.23;59.37;100642.44;5052034;28;66342;-40
2023/07/30 00:19:46;;;;;;;7.07;5.28;;;;;;;29.17;59.27;100638.72;5052368;28;70132;-38
2023/07/30 00:22:18;;;;;;;5.82;5.22;;;;;;;29.29;60.02;100655.09;5050598;28;66128;-38
2023/07/30 00:24:53;;;;;;;5.93;5.35;;;;;;;29.33;59.54;100653.59;5050572;28;69643;-39
2023/07/30 00:27:25;;;;;;;5.80;5.05;;;;;;;29.34;59.94;100668.78;5058245;28;65623;-39
2023/07/30 00:29:56;;;;;;;6.30;5.25;;;;;;;29.37;59.97;100671.06;5057841;28;69984;-39
2023/07/30 00:32:27;;;;;;;4.93;4.53;;;;;;;29.37;60.81;100676.47;5052205;28;65516;-39
2023/07/30 00:34:59;;;;;;;6.47;5.22;;;;;;;29.40;60.44;100686.84;5039721;28;69242;-39
2023/07/30 00:37:30;;;;;;;5.90;4.90;;;;;;;29.27;66.50;100686.88;5041698;28;66705;-39
2023/07/30 00:40:05;;;;;;;7.47;6.13;;;;;;;29.30;70.06;100697.25;5045856;28;70046;-39
2023/07/30 00:42:38;;;;;;;6.53;5.90;;;;;;;29.31;72.28;100707.03;5062054;28;65944;-39
2023/07/30 00:45:10;;;;;;;7.28;6.57;;;;;;;29.32;71.95;100706.00;5047636;28;70562;-39
2023/07/30 00:47:42;;;;;;;9.57;6.47;;;;;;;29.31;74.12;100698.94;5053303;28;66139;-37
2023/07/30 00:50:16;;;;;;;12.65;7.80;;;;;;;29.28;74.90;100688.56;5056179;28;70182;-39
2023/07/30 00:52:48;;;;;;;13.52;8.60;;;;;;;29.42;73.82;100699.28;5056992;28;66503;-41
2023/07/30 00:55:19;;;;;;;;;;;;;;;29.18;77.03;100689.00;5057366;28;70338;-38
2023/07/30 00:57:51;;;;;;;17.25;9.27;;;;;;;29.47;75.51;100685.97;5050636;28;66274;-41
2023/07/30 01:00:24;;;;;;;14.15;8.20;;;;;;;29.47;74.72;100680.56;5055035;28;69612;-40
2023/07/30 01:02:56;;;;;;;13.25;8.25;;;;;;;29.66;71.02;100676.97;5055289;28;65405;-39
2023/07/30 01:05:27;;;;;;;10.60;7.95;;;;;;;29.48;70.02;100639.81;5055442;28;70251;-39
2023/07/30 01:07:59;;;;;;;12.05;7.57;;;;;;;29.73;69.35;100680.47;5051365;28;66146;-40
2023/07/30 01:10:33;;;;;;;9.52;8.43;;;;;;;29.75;69.34;100689.16;5054779;28;69910;-39
2023/07/30 01:13:06;;;;;;;14.35;8.65;;;;;;;29.82;69.13;100692.66;5050626;28;65169;-39
2023/07/30 01:15:38;;;;;;;15.77;7.97;;;;;;;29.87;68.78;100707.44;5049686;28;70275;-40
2023/07/30 01:18:09;;;;;;;;;;;;;;;29.49;70.02;100717.13;5041503;28;66999;-39
2023/07/30 01:20:41;;;;;;;13.35;8.15;;;;;;;29.82;68.99;100711.59;5055161;28;69997;-41
2023/07/30 01:23:12;;;;;;;11.93;7.68;;;;;;;29.91;68.93;100724.84;5047091;28;66644;-40
2023/07/30 01:25:47;;;;;;;13.57;8.43;;;;;;;28.96;68.84;100566.91;5054601;28;70274;-40
2023/07/30 01:28:20;;;;;;;9.75;7.32;;;;;;;29.87;69.05;100708.25;5046701;28;65401;-39
2023/07/30 01:30:54;;;;;;;7.18;6.57;;;;;;;29.98;68.89;100725.66;5052916;28;71651;-39
2023/07/30 01:33:28;;;;;;;10.00;6.70;;;;;;;29.92;69.32;100718.38;5052300;28;66538;-39
2023/07/30 01:36:01;;;;;;;7.90;6.82;;;;;;;30.06;69.70;100739.75;5055185;28;70393;-41
2023/07/30 01:38:34;;;;;;;7.10;6.57;;;;;;;30.09;69.19;100743.91;5059782;27;66365;-39
2023/07/30 01:41:04;;;;;;;;;;;;;;;29.72;70.35;100753.66;5055432;28;70476;-39
2023/07/30 01:43:36;;;;;;;6.80;6.15;;;;;;;30.05;69.86;100737.25;5049819;28;66733;-39
2023/07/30 01:46:10;;;;;;;5.95;5.30;;;;;;;30.12;69.35;100734.53;5049284;28;70021;-40
2023/07/30 01:48:42;;;;;;;6.95;6.05;;;;;;;30.14;69.65;100727.00;5045661;28;65613;-41
2023/07/30 01:51:13;;;;;;;5.95;5.40;;;;;;;30.16;69.58;100728.44;5056757;28;70031;-38
2023/07/30 01:53:45;;;;;;;6.78;5.13;;;;;;;30.03;69.96;100702.31;5058030;28;66629;-40
2023/07/30 01:56:16;;;;;;;6.22;5.65;;;;;;;30.21;70.06;100734.00;5053410;28;69874;-39
2023/07/30 01:58:48;;;;;;;7.95;5.18;;;;;;;30.06;75.09;100728.94;5053140;28;66486;-39
2023/07/30 02:01:19;;;;;;;5.63;5.22;;;;;;;30.02;76.42;100738.50;5057509;28;70431;-39
2023/07/30 02:03:51;;;;;;;7.43;5.38;;;;;;;30.01;76.67;100741.44;5053266;28;66089;-40
2023/07/30 02:06:23;;;;;;;6.07;5.47;;;;;;;30.01;77.55;100746.84;5048432;28;70505;-38
2023/07/30 02:08:55;;;;;;;5.50;5.00;;;;;;;29.95;76.57;100732.34;5058771;28;66147;-40
2023/07/30 02:11:27;;;;;;;5.15;4.85;;;;;;;30.02;78.54;100748.50;5055183;28;69907;-37
2023/07/30 02:13:58;;;;;;;;;;;;;;;29.82;79.44;100748.63;5056075;28;66658;-38
2023/07/30 02:16:29;;;;;;;13.13;5.00;;;;;;;30.02;78.93;100748.50;5056864;28;69023;-38
2023/07/30 02:19:01;;;;;;;6.22;4.53;;;;;;;30.00;79.07;100737.06;5049554;28;66286;-39
2023/07/30 02:21:38;;;;;;;5.30;4.80;;;;;;;30.02;77.96;100740.38;5051268;28;70432;-38
2023/07/30 02:24:11;;;;;;;4.90;4.53;;;;;;;30.10;79.43;100745.53;5048415;28;66266;-38
2023/07/30 02:26:44;;;;;;;8.98;4.50;;;;;;;30.25;75.06;100754.19;5051153;28;69740;-39
2023/07/30 02:29:15;;;;;;;;;;;;;;;29.96;77.27;100749.38;5054018;28;65812;-37
2023/07/30 02:31:46;;;;;;;4.25;3.95;;;;;;;30.31;74.12;100749.78;5049271;28;70121;-39
2023/07/30 02:34:18;;;;;;;7.10;4.25;;;;;;;30.38;73.42;100747.03;5057535;28;66569;-38
2023/07/30 02:36:50;;;;;;;4.63;4.22;;;;;;;30.42;73.34;100749.09;5055211;28;70264;-38
2023/07/30 02:39:21;;;;;;;5.13;4.68;;;;;;;30.48;73.33;100752.81;5054240;28;66303;-40
2023/07/30 02:41:53;;;;;;;4.93;4.50;;;;;;;30.44;72.56;100733.44;5054458;28;70046;-38
2023/07/30 02:44:24;;;;;;;5.65;4.40;;;;;;;30.54;72.88;100740.25;5043127;28;66476;-39
2023/07/30 02:46:56;;;;;;;5.43;3.97;;;;;;;30.50;72.64;100719.03;5048487;28;70354;-37
2023/07/30 02:49:27;;;;;;;5.00;4.47;;;;;;;30.57;72.79;100724.41;5051392;28;66634;-38
2023/07/30 02:51:59;;;;;;;6.82;4.97;;;;;;;30.64;72.49;100725.16;5038417;28;70204;-39
2023/07/30 02:54:30;;;;;;;5.90;4.78;;;;;;;30.66;72.01;100733.88;5046656;28;65594;-38
2023/07/30 02:57:02;;;;;;;5.43;4.40;;;;;;;30.68;72.01;100731.78;5044150;28;69914;-39
2023/07/30 02:59:37;;;;;;;4.95;4.53;;;;;;;30.69;72.13;100721.78;5047141;28;65287;-38
2023/07/30 03:02:08;;;;;;;7.05;5.10;;;;;;;30.71;72.21;100709.69;5055500;28;70548;-38
2023/07/30 03:04:40;;;;;;;5.32;4.93;;;;;;;30.60;72.20;100696.88;5055402;28;65815;-38
2023/07/30 03:07:12;;;;;;;5.07;4.68;;;;;;;30.72;72.05;100719.44;5037555;28;69568;-38
2023/07/30 03:09:43;;;;;;;5.28;4.78;;;;;;;30.79;72.18;100713.97;5041129;28;65403;-38
2023/07/30 03:12:15;;;;;;;4.60;4.30;;;;;;;30.78;72.10;100708.78;5039685;28;69104;-37
2023/07/30 03:14:46;;;;;;;6.65;4.93;;;;;;;30.79;71.72;100707.75;5055671;28;65643;-39
2023/07/30 03:17:18;;;;;;;5.80;4.80;;;;;;;30.85;72.06;100715.00;5053560;28;69670;-40
2023/07/30 03:19:50;;;;;;;4.97;4.60;;;;;;;30.88;71.98;100720.78;5054736;28;66250;-39
2023/07/30 03:22:21;;;;;;;6.15;5.40;;;;;;;30.72;71.74;100676.13;5056750;28;70286;-39
2023/07/30 03:24:53;;;;;;;6.88;5.40;;;;;;;30.89;72.14;100697.22;5052921;28;64998;-37
2023/07/30 03:27:24;;;;;;;6.50;5.40;;;;;;;30.93;71.81;100701.16;5050914;28;71044;-38
2023/07/30 03:29:57;;;;;;;5.13;4.72;;;;;;;30.97;71.37;100691.53;5055114;28;66517;-38
2023/07/30 03:32:28;;;;;;;6.80;5.05;;;;;;;30.89;71.95;100678.28;5057678;28;69362;-37
2023/07/30 03:35:00;;;;;;;6.43;4.82;;;;;;;30.90;71.88;100669.13;5056125;28;66232;-38
2023/07/30 03:37:31;;;;;;;6.75;4.68;;;;;;;30.89;71.62;100653.91;5054408;28;70107;-38
2023/07/30 03:40:03;;;;;;;5.18;4.78;;;;;;;31.02;71.27;100678.13;5050254;28;65634;-40
2023/07/30 03:42:34;;;;;;;5.63;5.10;;;;;;;30.89;71.31;100646.59;5055821;28;70446;-38
2023/07/30 03:45:06;;;;;;;10.25;5.00;;;;;;;30.99;71.58;100653.38;5055055;28;65131;-40
2023/07/30 03:47:38;;;;;;;5.60;5.20;;;;;;;30.88;71.42;100641.41;5053193;28;70344;-38
2023/07/30 03:50:10;;;;;;;5.18;4.78;;;;;;;31.06;71.26;100660.34;5053795;28;66011;-39
2023/07/30 03:52:41;;;;;;;5.28;4.88;;;;;;;30.98;71.59;100652.56;5055045;28;69643;-40
2023/07/30 03:55:13;;;;;;;5.50;4.95;;;;;;;31.09;71.56;100656.38;5056394;28;65999;-39
2023/07/30 03:57:44;;;;;;;6.07;4.75;;;;;;;31.10;71.67;100664.28;5059193;28;70400;-37
2023/07/30 04:00:16;;;;;;;4.85;4.50;;;;;;;31.04;71.07;100659.78;5059818;28;66091;-38
2023/07/30 04:02:47;;;;;;;6.03;4.80;;;;;;;31.12;71.68;100667.59;5057095;28;69073;-38
2023/07/30 04:05:19;;;;;;;9.75;5.13;;;;;;;31.13;71.64;100663.00;5059310;28;66115;-39
2023/07/30 04:07:50;;;;;;;6.20;5.18;;;;;;;30.86;73.82;100663.31;5055726;28;69490;-41
2023/07/30 04:10:23;;;;;;;6.85;4.93;;;;;;;30.82;74.39;100661.28;5055115;28;66721;-38
2023/07/30 04:12:54;;;;;;;11.68;4.85;;;;;;;30.61;73.00;100671.44;5058801;28;69160;-39
2023/07/30 04:15:26;;;;;;;16.13;5.25;;;;;;;30.42;71.54;100672.47;5056381;28;65883;-40
2023/07/30 04:17:57;;;;;;;13.80;6.32;;;;;;;30.41;70.84;100681.66;5058142;28;69615;-38
2023/07/30 04:20:29;;;;;;;5.07;4.68;;;;;;;30.24;70.01;100665.97;5057449;28;66155;-42
2023/07/30 04:23:01;;;;;;;11.68;7.68;;;;;;;30.27;69.50;100676.34;5058381;28;69988;-40
2023/07/30 04:25:32;;;;;;;15.88;11.95;;;;;;;30.21;69.32;100677.19;5055085;28;65347;-42
2023/07/30 04:28:04;;;;;;;25.10;17.85;;;;;;;30.17;68.89;100680.56;5056859;28;69835;-41
2023/07/30 04:30:38;;;;;;;21.25;13.68;;;;;;;30.12;69.73;100670.41;5059901;27;67146;-39
2023/07/30 04:33:09;;;;;;;18.33;10.45;;;;;;;29.92;69.66;100608.38;5051231;28;70716;-41
2023/07/30 04:35:41;;;;;;;;;;;;;;;30.08;70.11;100671.88;5057879;28;66421;-40
2023/07/30 04:38:12;;;;;;;9.32;6.75;;;;;;;30.44;69.19;100664.97;5058735;28;70240;-39
2023/07/30 04:40:45;;;;;;;9.13;5.97;;;;;;;30.37;68.71;100648.78;5039955;28;65503;-40
2023/07/30 04:43:17;;;;;;;6.00;5.60;;;;;;;30.42;68.75;100667.06;5051738;28;70273;-41
2023/07/30 04:45:54;;;;;;;5.72;5.22;;;;;;;30.49;68.51;100663.25;5058177;28;66294;-41
2023/07/30 04:48:27;;;;;;;5.72;5.00;;;;;;;30.41;68.64;100643.75;5054341;28;69609;-38
2023/07/30 04:50:58;;;;;;;5.57;5.05;;;;;;;30.35;68.99;100634.66;5046588;28;67058;-42
2023/07/30 04:53:30;;;;;;;5.65;4.43;;;;;;;30.47;68.75;100650.97;5054554;28;70128;-39
2023/07/30 04:56:01;;;;;;;5.03;4.63;;;;;;;30.49;68.84;100662.41;5054805;28;66454;-41
2023/07/30 04:58:33;;;;;;;5.70;5.05;;;;;;;30.50;68.86;100674.88;5055675;28;70097;-41
2023/07/30 05:01:05;;;;;;;5.35;4.30;;;;;;;30.38;68.53;100655.03;5052747;28;66309;-41
2023/07/30 05:03:37;;;;;;;5.30;4.35;;;;;;;30.50;68.29;100664.06;5053332;28;70401;-41
2023/07/30 05:06:08;;;;;;;5.38;4.18;;;;;;;30.48;68.68;100668.91;5053830;28;66713;-40
2023/07/30 05:08:40;;;;;;;8.68;4.10;;;;;;;30.41;68.13;100660.81;5055601;28;69918;-41
2023/07/30 05:11:11;;;;;;;15.43;4.60;;;;;;;30.40;67.72;100666.47;5054442;28;65698;-41
2023/07/30 05:13:43;;;;;;;39.53;4.35;;;;;;;30.33;67.28;100652.16;5055031;28;70360;-41
2023/07/30 05:16:15;;;;;;;14.50;4.10;;;;;;;30.25;66.67;100635.13;5056190;28;65828;-42
2023/07/30 05:18:47;;;;;;;24.25;4.30;;;;;;;30.23;65.43;100642.69;5052870;28;70648;-40
2023/07/30 05:21:18;;;;;;;13.98;3.90;;;;;;;30.13;65.16;100631.47;5051480;28;65905;-42
2023/07/30 05:23:50;;;;;;;6.68;4.05;;;;;;;30.18;64.81;100647.88;5060202;28;69276;-40
2023/07/30 05:26:21;;;;;;;;;;;;;;;29.79;62.64;100647.16;5056827;28;65610;-40
2023/07/30 05:28:52;;;;;;;4.65;3.22;;;;;;;30.07;63.62;100656.72;5056542;28;70628;-42
2023/07/30 05:31:24;;;;;;;8.70;3.95;;;;;;;30.00;62.24;100645.09;5051181;28;66120;-42
2023/07/30 05:33:56;;;;;;;8.93;3.67;;;;;;;29.97;62.59;100638.25;5056628;28;70158;-43
2023/07/30 05:36:28;;;;;;;5.28;3.55;;;;;;;30.00;62.50;100642.41;5056241;28;66166;-41
2023/07/30 05:39:00;;;;;;;5.72;3.55;;;;;;;29.99;62.64;100657.00;5057835;28;69414;-40
2023/07/30 05:41:31;;;;;;;20.10;3.97;;;;;;;29.97;61.92;100653.66;5055788;28;66162;-41
2023/07/30 05:44:03;;;;;;;27.15;5.95;;;;;;;29.98;61.56;100650.75;5061532;28;69993;-41
2023/07/30 05:46:34;;;;;;;27.25;7.25;;;;;;;29.93;62.18;100637.06;5058300;28;66614;-41
2023/07/30 05:49:06;;;;;;;20.38;15.45;;;;;;;30.03;62.49;100647.38;5057815;28;70379;-41
2023/07/30 05:51:38;;;;;;;42.58;20.15;;;;;;;29.98;61.82;100620.19;5058680;28;66284;-40
2023/07/30 05:54:10;;;;;;;35.42;21.88;;;;;;;29.94;61.78;100600.03;5059464;28;70499;-42
2023/07/30 05:56:42;;;;;;;43.25;28.50;;;;;;;30.10;62.01;100620.28;5061203;28;66574;-43
2023/07/30 05:59:14;;;;;;;56.83;28.90;;;;;;;29.82;61.80;100572.88;5058063;28;70276;-40
2023/07/30 06:01:50;;;;;;;53.90;27.92;;;;;;;30.03;61.65;100617.63;5050609;28;66545;-41
2023/07/30 06:04:21;;;;;;;37.40;25.15;;;;;;;30.18;61.45;100623.53;5054401;28;70155;-41
2023/07/30 06:06:53;;;;;;;51.20;21.45;;;;;;;30.18;61.55;100626.25;5047894;28;65490;-39
2023/07/30 06:09:25;;;;;;;31.25;17.30;;;;;;;29.94;61.63;100621.66;5057334;28;69984;-43
2023/07/30 06:11:58;;;;;;;29.65;16.23;;;;;;;28.84;61.92;100466.03;5059039;28;66540;-42
2023/07/30 06:14:29;;;;;;;37.80;14.43;;;;;;;29.77;60.74;100634.88;5054196;28;70125;-42
2023/07/30 06:17:01;;;;;;;20.20;13.80;;;;;;;29.86;61.68;100635.44;5061223;28;65313;-43
2023/07/30 06:19:33;;;;;;;24.05;12.57;;;;;;;29.76;61.21;100631.34;5047845;28;71064;-45
2023/07/30 06:22:05;;;;;;;15.65;10.73;;;;;;;29.67;61.68;100629.97;5059142;28;66337;-43
2023/07/30 06:24:36;;;;;;;23.88;9.90;;;;;;;29.69;60.70;100622.44;5051742;28;69805;-42
2023/07/30 06:27:09;;;;;;;14.20;9.38;;;;;;;29.50;60.17;100612.56;5053597;28;66393;-41
2023/07/30 06:29:41;;;;;;;17.85;8.77;;;;;;;29.61;59.79;100622.69;5060149;28;70140;-41
2023/07/30 06:32:13;;;;;;;11.30;7.93;;;;;;;29.59;59.54;100619.41;5056309;28;66612;-42
2023/07/30 06:34:45;;;;;;;14.27;7.65;;;;;;;29.50;59.71;100609.88;5056926;28;70859;-41
2023/07/30 06:37:17;;;;;;;12.10;7.97;;;;;;;29.45;59.05;100601.56;5056575;28;66204;-41
2023/07/30 06:39:48;;;;;;;7.45;6.80;;;;;;;29.45;58.67;100601.56;5040818;28;69749;-44
2023/07/30 06:42:20;;;;;;;10.18;6.47;;;;;;;29.43;58.21;100587.47;5052508;28;66310;-42
2023/07/30 06:44:52;;;;;;;6.15;5.65;;;;;;;29.24;57.86;100567.63;5060791;28;69593;-41
2023/07/30 06:47:24;;;;;;;7.88;6.00;;;;;;;29.32;58.24;100581.72;5059943;28;65761;-42
2023/07/30 06:49:56;;;;;;;9.07;6.35;;;;;;;29.33;57.45;100577.94;5051226;28;70464;-41
2023/07/30 06:52:27;;;;;;;7.20;5.60;;;;;;;29.31;57.27;100585.47;5055900;28;66371;-41
2023/07/30 06:54:59;;;;;;;5.95;5.45;;;;;;;29.31;57.35;100574.66;5048363;28;69539;-43
2023/07/30 06:57:31;;;;;;;6.32;5.70;;;;;;;29.28;57.43;100577.81;5049025;28;66158;-42
2023/07/30 07:00:04;;;;;;;5.18;4.70;;;;;;;29.23;57.10;100552.47;5059946;28;71068;-42
2023/07/30 07:02:36;;;;;;;6.57;4.78;;;;;;;29.16;56.64;100545.22;5060126;28;66774;-44
2023/07/30 07:05:09;;;;;;;5.40;4.90;;;;;;;29.18;57.17;100539.63;5056470;28;69661;-42
2023/07/30 07:07:41;;;;;;;4.85;4.55;;;;;;;29.24;56.44;100536.03;5051394;28;65743;-41
2023/07/30 07:10:13;;;;;;;5.78;5.10;;;;;;;29.23;56.94;100539.81;5053639;28;70162;-41
2023/07/30 07:12:45;;;;;;;4.80;4.50;;;;;;;29.14;56.89;100514.06;5058409;28;66241;-41
2023/07/30 07:15:20;;;;;;;4.35;3.92;;;;;;;28.56;56.50;100422.41;5050488;28;69645;-40
2023/07/30 07:17:52;;;;;;;6.70;4.13;;;;;;;29.22;56.16;100521.91;5063374;28;66551;-40
2023/07/30 07:20:24;;;;;;;4.97;4.03;;;;;;;29.25;57.08;100515.25;5061498;28;69446;-41
2023/07/30 07:22:55;;;;;;;4.25;3.80;;;;;;;29.17;55.62;100502.84;5061188;28;65514;-43
2023/07/30 07:25:27;;;;;;;4.20;3.90;;;;;;;29.13;55.21;100496.22;5051570;28;70712;-42
2023/07/30 07:27:59;;;;;;;4.00;3.70;;;;;;;29.17;54.87;100492.88;5053558;28;66700;-40
2023/07/30 07:30:31;;;;;;;3.92;3.63;;;;;;;29.17;54.95;100494.75;5061044;28;70612;-42
2023/07/30 07:33:05;;;;;;;4.32;3.92;;;;;;;29.14;54.80;100493.31;5063772;28;65718;-43
2023/07/30 07:35:37;;;;;;;3.40;2.97;;;;;;;29.21;55.06;100487.84;5063520;28;68789;-41
2023/07/30 07:38:08;;;;;;;;;;;;;;;28.93;55.67;100485.50;5056726;28;66381;-42
2023/07/30 07:40:40;;;;;;;4.05;3.65;;;;;;;29.18;54.92;100481.00;5045051;28;70028;-44
2023/07/30 07:43:11;;;;;;;;;;;;;;;28.94;55.40;100470.97;5064026;28;65383;-39
2023/07/30 07:45:43;;;;;;;4.22;3.90;;;;;;;29.16;55.39;100463.38;5058026;28;70485;-41
2023/07/30 07:48:14;;;;;;;4.20;3.15;;;;;;;29.21;54.78;100463.53;5062270;28;66391;-40
2023/07/30 07:50:46;;;;;;;15.15;3.63;;;;;;;29.33;57.16;100452.84;5059862;28;69246;-41
2023/07/30 07:53:18;;;;;;;8.40;4.47;;;;;;;29.32;59.19;100435.81;5055938;28;65734;-43
2023/07/30 07:55:50;;;;;;;9.82;4.55;;;;;;;29.55;59.90;100439.78;5056133;28;70706;-40
2023/07/30 07:58:22;;;;;;;9.65;4.30;;;;;;;29.68;60.49;100438.88;5053728;28;66728;-41
2023/07/30 08:00:56;;;;;;;11.40;3.83;;;;;;;29.77;61.45;100432.13;5057283;28;69191;-41
2023/07/30 08:03:28;;;;;;;12.40;4.60;;;;;;;29.75;61.54;100424.22;5060842;28;65585;-40
2023/07/30 08:06:00;;;;;;;9.77;4.45;;;;;;;29.82;61.63;100419.59;5059303;28;70466;-40
2023/07/30 08:08:32;;;;;;;7.53;4.70;;;;;;;29.97;62.37;100426.50;5058948;28;65685;-42
2023/07/30 08:11:07;;;;;;;;;;;;;;;29.79;63.13;100425.44;5056854;28;69866;-41
2023/07/30 08:13:39;;;;;;;9.07;4.13;;;;;;;30.12;62.09;100421.56;5060666;28;66836;-41
2023/07/30 08:16:10;;;;;;;5.45;4.10;;;;;;;30.09;63.24;100422.00;5056198;28;69976;-42
2023/07/30 08:18:42;;;;;;;11.50;4.70;;;;;;;30.09;63.59;100419.31;5057949;28;66410;-39
2023/07/30 08:21:17;;;;;;;14.63;5.20;;;;;;;30.21;64.36;100412.06;5058631;28;69479;-41
2023/07/30 08:23:49;;;;;;;10.23;5.32;;;;;;;30.31;67.75;100416.97;5057237;28;66624;-40
2023/07/30 08:26:20;;;;;;;11.45;5.68;;;;;;;30.30;68.44;100414.50;5058621;28;69075;-41
2023/07/30 08:28:52;;;;;;;9.43;6.15;;;;;;;30.46;67.83;100419.28;5059100;28;66258;-40
2023/07/30 08:31:24;;;;;;;9.48;6.55;;;;;;;30.48;70.82;100417.19;5061898;28;69879;-39
2023/07/30 08:33:56;;;;;;;12.00;6.53;;;;;;;30.50;72.34;100423.16;5052432;28;66017;-38
2023/07/30 08:36:31;;;;;;;9.25;6.75;;;;;;;29.96;71.89;100330.22;5061099;28;43571;-39
2023/07/30 08:39:03;;;;;;;6.93;6.30;;;;;;;30.64;70.28;100416.50;5057437;28;66761;-40
2023/07/30 08:41:35;;;;;;;14.82;7.07;;;;;;;30.62;72.08;100412.38;5055933;28;70626;-40
2023/07/30 08:44:06;;;;;;;;;;;;;;;30.45;73.55;100413.06;5055565;28;66379;-40
2023/07/30 08:46:38;;;;;;;8.07;6.93;;;;;;;30.82;69.66;100415.69;5056400;28;70469;-40
2023/07/30 08:49:09;;;;;;;12.77;6.57;;;;;;;30.89;68.69;100404.75;5048432;28;65168;-40
2023/07/30 08:51:43;;;;;;;11.35;6.43;;;;;;;30.36;68.48;100316.16;5053901;28;69981;-39
2023/07/30 08:54:16;;;;;;;7.22;6.03;;;;;;;30.94;68.16;100391.31;5055353;28;66292;-40
2023/07/30 08:56:49;;;;;;;7.28;5.80;;;;;;;30.67;67.92;100334.88;5057411;28;69819;-41
2023/07/30 08:59:22;;;;;;;8.25;6.35;;;;;;;31.16;67.94;100410.56;5057703;28;66292;-40
2023/07/30 09:01:54;;;;;;;16.92;7.00;;;;;;;31.11;68.22;100400.41;5057768;28;70451;-41
2023/07/30 09:04:26;;;;;;;6.22;5.72;;;;;;;31.21;67.95;100423.44;5053843;28;66863;-40
2023/07/30 09:06:59;;;;;;;7.63;6.30;;;;;;;31.16;68.17;100427.66;5054819;28;70505;-39
2023/07/30 09:09:32;;;;;;;6.38;5.70;;;;;;;31.27;68.19;100441.44;5046781;28;66070;-41
2023/07/30 09:12:03;;;;;;;;;;;;;;;30.94;70.82;100437.38;5055530;28;70045;-41
2023/07/30 09:14:34;;;;;;;9.60;6.15;;;;;;;31.20;68.21;100440.72;5057003;28;65422;-39
2023/07/30 09:17:06;;;;;;;7.32;6.47;;;;;;;31.23;68.49;100445.69;5046463;28;69843;-41
2023/07/30 09:19:38;;;;;;;7.07;5.95;;;;;;;31.29;68.08;100461.03;5055658;28;66781;-42
2023/07/30 09:22:09;;;;;;;6.97;5.90;;;;;;;31.30;68.32;100457.25;5050315;28;70048;-41
2023/07/30 09:24:47;;;;;;;8.48;5.93;;;;;;;31.26;68.50;100454.19;5055277;28;65830;-41
2023/07/30 09:27:28;;;;;;;8.10;6.35;;;;;;;31.32;68.14;100452.41;5058160;28;70778;-42
2023/07/30 09:30:02;;;;;;;10.98;6.65;;;;;;;31.34;68.33;100450.28;5054900;28;66098;-41
2023/07/30 09:32:35;;;;;;;7.03;5.50;;;;;;;31.34;68.40;100450.28;5056916;28;71207;-40
2023/07/30 09:35:10;;;;;;;13.07;6.00;;;;;;;31.17;68.62;100426.59;5055947;28;65739;-40
2023/07/30 09:37:42;;;;;;;8.10;5.28;;;;;;;30.82;68.69;100368.81;5050244;28;69562;-41
2023/07/30 09:40:18;;;;;;;6.63;5.65;;;;;;;30.94;68.45;100389.44;5058931;28;65995;-40
2023/07/30 09:42:50;;;;;;;17.08;5.53;;;;;;;31.25;68.96;100438.16;5060136;28;70674;-38
2023/07/30 09:45:24;;;;;;;;;;;;;;;31.00;71.87;100463.53;5054646;28;65660;-41
2023/07/30 09:47:56;;;;;;;18.55;6.88;;;;;;;31.29;70.02;100458.31;5054331;28;69809;-38
2023/07/30 09:50:29;;;;;;;30.13;5.65;;;;;;;31.34;69.99;100459.25;5058423;28;66807;-39
2023/07/30 09:53:04;;;;;;;15.90;4.63;;;;;;;31.22;72.00;100446.75;5055830;28;70159;-38
2023/07/30 09:55:36;;;;;;;14.43;5.40;;;;;;;31.10;74.03;100468.41;5058022;28;66125;-39
2023/07/30 09:58:11;;;;;;;10.85;6.03;;;;;;;30.86;74.90;100451.25;5056770;28;69983;-41
2023/07/30 10:00:45;;;;;;;12.30;6.60;;;;;;;30.71;75.88;100443.50;5058707;28;66458;-39
2023/07/30 10:03:17;;;;;;;20.13;15.13;;;;;;;30.60;76.50;100433.47;5054250;28;69696;-40
2023/07/30 10:05:50;;;;;;;19.02;9.98;;;;;;;30.71;76.44;100462.47;5058187;28;65439;-38
2023/07/30 10:08:26;;;;;;;14.23;8.25;;;;;;;30.22;77.43;100391.28;5056261;28;69588;-39
2023/07/30 10:11:00;;;;;;;11.90;7.97;;;;;;;30.66;76.08;100467.75;5055961;28;65536;-39
2023/07/30 10:13:32;;;;;;;9.25;7.18;;;;;;;30.72;78.47;100483.88;5055142;28;70073;-40
2023/07/30 10:16:03;;;;;;;;;;;;;;;30.45;78.79;100488.84;5056431;28;66382;-38
2023/07/30 10:18:39;;;;;;;9.48;7.18;;;;;;;30.67;77.94;100491.88;5052808;28;69765;-39
2023/07/30 10:21:22;;;;;;;12.30;7.68;;;;;;;30.64;77.83;100481.50;5056709;28;65881;-41
2023/07/30 10:24:04;;;;;;;8.80;6.93;;;;;;;30.17;78.14;100410.88;5056388;28;70643;-40
2023/07/30 10:26:37;;;;;;;11.40;7.18;;;;;;;30.73;78.44;100507.22;5051623;28;66883;-41
2023/07/30 10:29:19;;;;;;;8.18;7.28;;;;;;;30.73;78.28;100511.81;5038883;28;69824;-42
2023/07/30 10:31:55;;;;;;;10.80;7.45;;;;;;;30.28;78.40;100429.09;5068947;28;65474;-42
2023/07/30 10:34:43;;;;;;;9.23;6.88;;;;;;;30.79;78.10;100512.78;5051353;28;70282;-41
2023/07/30 10:37:26;;;;;;;9.60;6.13;;;;;;;30.65;79.40;100495.88;5050398;28;65805;-42
2023/07/30 10:40:17;;;;;;;13.48;7.10;;;;;;;31.00;75.35;100511.47;5051397;28;70417;-41
2023/07/30 10:43:17;;;;;;;14.98;6.68;;;;;;;31.01;75.83;100507.69;5053530;28;67144;-40
2023/07/30 10:46:13;;;;;;;11.75;7.15;;;;;;;31.12;74.42;100521.28;5051213;28;71142;-40
2023/07/30 10:49:06;;;;;;;11.60;6.55;;;;;;;30.21;74.04;100362.56;5056020;28;66604;-40
2023/07/30 10:51:57;;;;;;;10.13;5.90;;;;;;;30.51;73.77;100411.31;5057663;28;70709;-41
2023/07/30 10:54:48;;;;;;;11.85;6.05;;;;;;;31.22;73.58;100525.31;5055540;28;67308;-42
2023/07/30 10:57:40;;;;;;;13.68;6.60;;;;;;;31.27;73.45;100530.88;5051568;28;69958;-42
2023/07/30 11:00:30;;;;;;;7.68;6.63;;;;;;;31.25;73.84;100535.69;5051519;28;66986;-42
2023/07/30 11:03:20;;;;;;;6.95;6.28;;;;;;;31.26;73.44;100534.63;5038496;28;71141;-42
2023/07/30 11:06:11;;;;;;;8.88;6.50;;;;;;;31.26;73.10;100534.63;5051711;28;66224;-43
2023/07/30 11:09:00;;;;;;;9.45;6.65;;;;;;;31.30;72.98;100546.66;5052467;28;71103;-41
2023/07/30 11:11:52;;;;;;;12.20;6.63;;;;;;;30.85;73.15;100472.09;5053229;28;66622;-41
2023/07/30 11:14:42;;;;;;;10.93;6.32;;;;;;;31.29;72.87;100553.97;5051863;28;71164;-40
2023/07/30 11:17:33;;;;;;;6.60;5.95;;;;;;;31.12;73.15;100526.72;5052588;28;67883;-40
2023/07/30 11:20:26;;;;;;;20.88;7.45;;;;;;;30.77;72.90;100468.84;5050884;28;71153;-41
2023/07/30 11:23:22;;;;;;;10.50;7.28;;;;;;;31.26;73.67;100553.59;5050863;28;67993;-43
2023/07/30 11:26:17;;;;;;;10.93;7.40;;;;;;;30.73;73.13;100473.91;5049468;28;71101;-42
2023/07/30 11:29:18;;;;;;;8.77;7.38;;;;;;;31.22;73.68;100563.25;5051731;28;67235;-39
2023/07/30 11:32:08;;;;;;;11.07;7.72;;;;;;;31.26;72.94;100559.00;5047892;28;71169;-42
2023/07/30 11:34:58;;;;;;;11.52;7.63;;;;;;;31.31;73.15;100572.69;5052662;28;67178;-41
2023/07/30 11:37:49;;;;;;;7.35;6.50;;;;;;;31.32;73.01;100574.38;5052266;28;71216;-41
2023/07/30 11:40:41;;;;;;;11.75;6.55;;;;;;;31.15;75.45;100580.44;5049359;28;67388;-41
2023/07/30 11:43:31;;;;;;;7.10;6.40;;;;;;;30.97;77.97;100587.78;5051760;28;71100;-39
2023/07/30 11:46:22;;;;;;;12.27;7.00;;;;;;;30.89;78.93;100592.44;5051590;28;66599;-39
2023/07/30 11:49:18;;;;;;;6.82;6.22;;;;;;;30.79;79.35;100580.47;5052382;28;69976;-40
2023/07/30 11:52:09;;;;;;;14.45;7.13;;;;;;;30.84;79.30;100599.59;5050946;28;66669;-40
2023/07/30 11:55:03;;;;;;;9.77;6.95;;;;;;;30.78;79.99;100616.72;5052487;28;70403;-39
2023/07/30 11:57:54;;;;;;;9.10;7.13;;;;;;;30.72;80.15;100608.44;5051592;28;67266;-40